Time;durP1;ratioP1;P1;durP2;ratioP2;P2;SDS_P1;SDS_P2;PMS_P1;PMS_P2;Temp;Humidity;BMP_temperature;BMP_pressure;BME280_temperature;BME280_humidity;BME280_pressure;Samples;Min_cycle;Max_cycle;Signal;HPM_P1;HPM_P2
2022/10/11 00:01:46;;;;;;;11.47;9.67;;;;;;;7.82;100.00;96734.56;6128216;23;20395;-77
2022/10/11 00:04:13;;;;;;;10.40;8.80;;;;;;;7.96;100.00;96745.81;6127919;23;20435;-78
2022/10/11 00:06:42;;;;;;;13.83;9.30;;;;;;;7.92;100.00;96713.25;6103615;23;20490;-77
2022/10/11 00:09:10;;;;;;;10.93;9.10;;;;;;;8.22;100.00;96753.91;6103460;23;20431;-77
2022/10/11 00:11:37;;;;;;;10.90;8.43;;;;;;;7.50;100.00;96683.69;6127786;23;20415;-77
2022/10/11 00:14:05;;;;;;;11.00;8.90;;;;;;;7.40;100.00;96689.94;6153994;23;20447;-77
2022/10/11 00:16:32;;;;;;;11.60;9.40;;;;;;;7.62;100.00;96736.56;6153980;23;20436;-77
2022/10/11 00:18:58;;;;;;;14.83;10.97;;;;;;;7.54;100.00;96710.94;6103138;23;20462;-77
2022/10/11 00:21:26;;;;;;;14.40;9.63;;;;;;;7.83;100.00;96744.00;6153912;23;20455;-77
2022/10/11 00:23:52;;;;;;;9.40;8.50;;;;;;;7.76;100.00;96736.53;6127642;23;20767;-77
2022/10/11 00:26:19;;;;;;;11.10;10.00;;;;;;;7.79;100.00;96733.31;6127620;23;20422;-77
2022/10/11 00:28:46;;;;;;;10.70;9.50;;;;;;;7.58;100.00;96682.97;6127446;23;20420;-77
2022/10/11 00:31:15;;;;;;;13.07;9.93;;;;;;;8.05;100.00;96745.88;6153815;23;20396;-78
2022/10/11 00:33:41;;;;;;;10.83;9.73;;;;;;;8.07;100.00;96747.13;6127460;23;20536;-77
2022/10/11 00:36:12;;;;;;;14.80;9.57;;;;;;;7.85;100.00;96705.00;6127778;23;20384;-77
2022/10/11 00:38:39;;;;;;;9.10;8.00;;;;;;;7.83;100.00;96705.28;6127464;23;20474;-77
2022/10/11 00:41:06;;;;;;;15.80;10.70;;;;;;;8.17;100.00;96754.03;6153829;23;20439;-77
2022/10/11 00:43:32;;;;;;;10.50;9.50;;;;;;;7.92;100.00;96723.78;6153622;23;20775;-77
2022/10/11 00:46:26;;;;;;;12.20;9.67;;;;;;;8.11;100.00;96755.97;6127900;23;20859;-78
2022/10/11 00:48:59;;;;;;;11.67;10.30;;;;;;;8.07;100.00;96756.88;6103304;23;20427;-78
2022/10/11 00:51:47;;;;;;;11.70;10.50;;;;;;;8.10;100.00;96759.69;6153697;23;20408;-77
2022/10/11 00:54:17;;;;;;;12.30;9.30;;;;;;;8.11;100.00;96760.47;6102876;23;20431;-78
2022/10/11 00:56:50;;;;;;;16.60;12.07;;;;;;;8.00;100.00;96737.00;6127332;23;20403;-77
2022/10/11 00:59:22;;;;;;;22.33;11.83;;;;;;;8.14;100.00;96751.97;6127544;23;20481;-77
2022/10/11 01:01:50;;;;;;;24.70;18.90;;;;;;;8.21;100.00;96747.06;6127547;23;20415;-77
2022/10/11 01:04:17;;;;;;;25.60;17.47;;;;;;;8.30;100.00;96737.38;6127412;23;20802;-77
2022/10/11 01:06:44;;;;;;;25.50;18.13;;;;;;;7.91;100.00;96685.38;6127163;23;20454;-77
2022/10/11 01:09:12;;;;;;;18.43;13.30;;;;;;;8.06;100.00;96698.19;6153410;23;20775;-77
2022/10/11 01:11:41;;;;;;;19.07;15.00;;;;;;;8.24;100.00;96749.09;6127254;23;20887;-78
2022/10/11 01:14:20;;;;;;;13.53;12.10;;;;;;;8.32;100.00;96745.75;6126773;23;21000;-77
2022/10/11 01:16:57;;;;;;;20.73;15.13;;;;;;;8.41;100.00;96751.88;6127346;23;20392;-77
2022/10/11 01:19:44;;;;;;;15.87;13.87;;;;;;;8.26;100.00;96720.59;6126849;23;20748;-77
2022/10/11 01:22:21;;;;;;;23.70;16.97;;;;;;;8.49;100.00;96755.63;6127359;23;20425;-77
2022/10/11 01:25:09;;;;;;;20.60;16.60;;;;;;;8.52;100.00;96747.13;6153437;23;20371;-77
2022/10/11 01:28:06;;;;;;;32.80;19.50;;;;;;;8.52;100.00;96749.75;6102816;23;20458;-77
2022/10/11 01:30:35;;;;;;;26.13;19.03;;;;;;;8.53;100.00;96753.94;6153863;23;20831;-77
2022/10/11 01:33:11;;;;;;;23.40;18.33;;;;;;;8.55;100.00;96754.44;6153529;23;20385;-78
2022/10/11 01:35:56;;;;;;;26.37;19.30;;;;;;;8.53;100.00;96751.31;6127528;23;20415;-77
2022/10/11 01:38:29;;;;;;;24.80;17.83;;;;;;;8.49;100.00;96750.38;6127155;23;20424;-78
2022/10/11 01:41:01;;;;;;;29.83;19.70;;;;;;;8.40;100.00;96736.38;6153566;23;20785;-77
2022/10/11 01:43:29;;;;;;;26.80;20.27;;;;;;;8.21;100.00;96707.56;6127402;23;20783;-78
2022/10/11 01:45:57;;;;;;;31.77;20.90;;;;;;;8.38;100.00;96739.31;6127767;23;20380;-77
2022/10/11 01:48:24;;;;;;;21.90;18.00;;;;;;;8.34;100.00;96727.81;6153340;23;20415;-78
2022/10/11 01:50:55;;;;;;;25.53;19.60;;;;;;;8.69;100.00;96757.78;6127276;23;20404;-78
2022/10/11 01:53:51;;;;;;;22.00;17.23;;;;;;;8.51;100.00;96727.91;6103369;23;20744;-78
2022/10/11 01:56:41;;;;;;;23.20;17.27;;;;;;;8.69;100.00;96759.63;6103284;23;20783;-78
2022/10/11 01:59:50;;;;;;;24.70;17.37;;;;;;;8.14;100.00;96667.69;6153821;23;20411;-78
2022/10/11 02:02:30;;;;;;;22.03;17.33;;;;;;;8.53;100.00;96735.50;6103623;23;20977;-78
2022/10/11 02:04:57;;;;;;;23.70;15.90;;;;;;;8.75;100.00;96768.97;6103161;23;20858;-78
2022/10/11 02:07:42;;;;;;;20.90;17.07;;;;;;;8.50;100.00;96725.56;6103631;23;20435;-78
2022/10/11 02:10:17;;;;;;;18.70;16.27;;;;;;;8.74;100.00;96767.41;6154945;23;20404;-78
2022/10/11 02:13:02;;;;;;;18.50;15.83;;;;;;;8.41;100.00;96724.75;6127804;23;20395;-79
2022/10/11 02:15:31;;;;;;;21.87;15.60;;;;;;;8.48;100.00;96752.22;6104015;23;20779;-79
2022/10/11 02:18:01;;;;;;;25.90;17.23;;;;;;;8.49;100.00;96760.91;6154666;23;20913;-78
2022/10/11 02:20:31;;;;;;;27.57;18.93;;;;;;;8.10;100.00;96706.25;6128668;23;20494;-78
2022/10/11 02:23:04;;;;;;;23.40;16.27;;;;;;;8.46;100.00;96764.94;6104684;23;20755;-78
2022/10/11 02:25:33;;;;;;;21.57;15.90;;;;;;;8.29;100.00;96731.34;6133371;23;20365;-78
2022/10/11 02:28:06;;;;;;;18.57;15.50;;;;;;;8.28;100.00;96729.00;6143571;23;20885;-78
2022/10/11 02:30:34;;;;;;;28.70;16.47;;;;;;;8.51;100.00;96779.84;6123126;23;20403;-78
2022/10/11 02:33:04;;;;;;;21.00;15.23;;;;;;;8.40;100.00;96757.44;6147263;23;20376;-78
2022/10/11 02:35:37;;;;;;;21.37;14.70;;;;;;;8.10;100.00;96714.16;6145722;23;20479;-78
2022/10/11 02:38:22;;;;;;;17.00;14.70;;;;;;;8.54;100.00;96773.94;6148715;23;20371;-79
2022/10/11 02:41:06;;;;;;;20.70;15.10;;;;;;;8.54;100.00;96768.69;6149985;23;20426;-78
2022/10/11 02:43:40;;;;;;;20.20;14.70;;;;;;;8.35;100.00;96731.22;6150244;23;20368;-78
2022/10/11 02:46:08;;;;;;;22.23;14.73;;;;;;;8.65;100.00;96777.91;6118970;23;20843;-77
2022/10/11 02:48:36;;;;;;;18.63;14.70;;;;;;;8.60;100.00;96759.59;6130924;23;20426;-79
2022/10/11 02:51:03;;;;;;;15.63;13.90;;;;;;;8.72;100.00;96778.25;6128604;23;20402;-79
2022/10/11 02:53:32;;;;;;;16.87;14.27;;;;;;;8.54;100.00;96753.66;6128779;23;20396;-78
2022/10/11 02:55:58;;;;;;;18.50;13.40;;;;;;;8.59;100.00;96784.38;6154755;23;20423;-78
2022/10/11 02:58:25;;;;;;;13.90;11.70;;;;;;;8.09;100.00;96699.44;6128547;23;20420;-78
2022/10/11 03:00:52;;;;;;;13.77;12.13;;;;;;;8.39;100.00;96740.06;6128949;23;20384;-77
2022/10/11 03:03:19;;;;;;;22.20;13.37;;;;;;;8.46;100.00;96754.38;6104394;23;20743;-78
2022/10/11 03:05:45;;;;;;;13.13;11.77;;;;;;;8.54;100.00;96753.66;6128346;23;20400;-78
2022/10/11 03:08:14;;;;;;;16.40;12.10;;;;;;;8.59;100.00;96761.44;6128407;23;20400;-78
2022/10/11 03:10:41;;;;;;;14.67;11.10;;;;;;;8.77;100.00;96793.16;6128274;23;20404;-78
2022/10/11 03:13:08;;;;;;;13.73;12.30;;;;;;;8.78;100.00;96800.75;6128221;23;20406;-79
2022/10/11 03:15:35;;;;;;;14.30;11.40;;;;;;;8.66;100.00;96799.75;6128155;23;20956;-78
2022/10/11 03:18:01;;;;;;;14.10;11.63;;;;;;;8.48;100.00;96793.63;6128128;23;20404;-78
2022/10/11 03:20:28;;;;;;;11.57;10.47;;;;;;;8.64;100.00;96807.19;6128626;23;20395;-78
2022/10/11 03:22:55;;;;;;;12.33;11.07;;;;;;;8.62;100.00;96775.88;6128573;23;20438;-78
2022/10/11 03:25:21;;;;;;;15.00;10.00;;;;;;;8.88;100.00;96818.97;6104108;23;20392;-78
2022/10/11 03:27:48;;;;;;;11.93;10.67;;;;;;;8.45;100.00;96760.75;6128108;23;20754;-78
2022/10/11 03:30:15;;;;;;;15.53;10.90;;;;;;;8.65;100.00;96783.16;6103847;23;20507;-78
2022/10/11 03:32:44;;;;;;;11.10;9.90;;;;;;;8.58;100.00;96780.19;6104600;23;20506;-78
2022/10/11 03:35:10;;;;;;;11.00;9.90;;;;;;;8.96;100.00;96825.38;6154229;23;20543;-78
2022/10/11 03:37:37;;;;;;;13.03;11.50;;;;;;;8.84;100.00;96796.94;6154129;23;20391;-78
2022/10/11 03:40:07;;;;;;;15.00;10.67;;;;;;;9.01;100.00;96840.28;6127976;23;20423;-78
2022/10/11 03:42:34;;;;;;;14.80;12.30;;;;;;;9.20;100.00;96846.09;6103815;23;20503;-78
2022/10/11 03:45:03;;;;;;;13.07;11.00;;;;;;;8.88;100.00;96795.22;6128214;23;20877;-77
2022/10/11 03:47:31;;;;;;;12.03;10.30;;;;;;;9.34;100.00;96852.06;6154214;23;20478;-78
2022/10/11 03:49:57;;;;;;;14.93;11.33;;;;;;;8.87;100.00;96795.53;6103667;23;20511;-78
2022/10/11 03:52:24;;;;;;;12.20;10.70;;;;;;;8.85;100.00;96824.84;6103948;23;20894;-78
2022/10/11 03:54:51;;;;;;;12.17;10.77;;;;;;;8.95;100.00;96852.03;6127796;23;20432;-78
2022/10/11 03:57:18;;;;;;;13.07;11.20;;;;;;;8.79;100.00;96830.53;6103527;23;20486;-78
2022/10/11 03:59:44;;;;;;;15.73;11.33;;;;;;;8.83;100.00;96834.94;6128086;23;20404;-78
2022/10/11 04:02:11;;;;;;;14.03;11.20;;;;;;;8.69;100.00;96822.91;6103626;23;20411;-78
2022/10/11 04:04:38;;;;;;;12.87;10.13;;;;;;;8.92;100.00;96863.19;6154030;23;20388;-77
2022/10/11 04:07:05;;;;;;;12.10;10.80;;;;;;;8.59;100.00;96808.88;6154041;23;20391;-78
2022/10/11 04:09:31;;;;;;;15.40;11.20;;;;;;;8.56;100.00;96814.75;6103313;23;20910;-78
2022/10/11 04:11:58;;;;;;;13.63;11.60;;;;;;;8.79;100.00;96851.63;6103706;23;20407;-78
2022/10/11 04:14:25;;;;;;;13.90;12.50;;;;;;;8.87;100.00;96872.00;6103416;23;20746;-78
2022/10/11 04:16:52;;;;;;;16.47;11.57;;;;;;;8.77;100.00;96857.22;6153793;23;20384;-78
2022/10/11 04:19:23;;;;;;;12.03;10.73;;;;;;;8.67;100.00;96825.03;6127416;23;20431;-79
2022/10/11 04:21:50;;;;;;;21.20;11.37;;;;;;;8.77;100.00;96846.66;6127588;23;20400;-79
2022/10/11 04:24:17;;;;;;;13.67;11.37;;;;;;;8.76;100.00;96829.28;6103320;23;20503;-78
2022/10/11 04:26:43;;;;;;;13.30;11.90;;;;;;;8.74;100.00;96830.69;6153817;23;20480;-78
2022/10/11 04:29:10;;;;;;;13.30;11.23;;;;;;;8.65;100.00;96819.28;6127526;23;20465;-78
2022/10/11 04:31:37;;;;;;;12.87;11.47;;;;;;;8.53;100.00;96796.13;6127781;23;20388;-78
2022/10/11 04:34:03;;;;;;;16.30;13.03;;;;;;;9.07;100.00;96854.88;6153746;23;20384;-78
2022/10/11 04:36:32;;;;;;;16.40;13.20;;;;;;;8.98;100.00;96848.81;6127281;23;20778;-78
2022/10/11 04:39:00;;;;;;;17.17;13.00;;;;;;;8.87;100.00;96822.69;6127709;23;20440;-78
2022/10/11 04:41:28;;;;;;;17.33;12.93;;;;;;;8.67;100.00;96793.41;6127487;23;20439;-79
2022/10/11 04:43:55;;;;;;;15.40;13.80;;;;;;;8.96;100.00;96841.19;6153601;23;20384;-78
2022/10/11 04:46:22;;;;;;;15.57;13.87;;;;;;;8.74;100.00;96809.59;6127388;23;20396;-78
2022/10/11 04:48:50;;;;;;;15.60;13.57;;;;;;;8.79;100.00;96826.03;6127170;23;20411;-78
2022/10/11 04:51:17;;;;;;;14.13;12.30;;;;;;;8.88;100.00;96855.09;6127453;23;20502;-78
2022/10/11 04:53:44;;;;;;;14.53;12.00;;;;;;;8.66;100.00;96840.06;6127314;23;20404;-78
2022/10/11 04:56:10;;;;;;;14.33;11.70;;;;;;;8.61;100.00;96803.31;6127595;23;20770;-78
2022/10/11 04:58:39;;;;;;;13.90;12.27;;;;;;;8.85;100.00;96843.31;6153448;23;20414;-78
2022/10/11 05:01:08;;;;;;;13.63;12.33;;;;;;;8.95;100.00;96862.56;6103143;23;20494;-77
2022/10/11 05:03:35;;;;;;;14.17;12.77;;;;;;;8.94;100.00;96866.28;6127491;23;20415;-78
2022/10/11 05:06:03;;;;;;;19.07;16.37;;;;;;;9.10;100.00;96883.31;6127468;23;20403;-77
2022/10/11 05:08:32;;;;;;;16.40;14.27;;;;;;;9.07;100.00;96886.53;6153347;23;20408;-77
2022/10/11 05:11:05;;;;;;;17.03;12.30;;;;;;;9.01;100.00;96885.13;6127274;23;20400;-79
2022/10/11 05:13:33;;;;;;;14.20;12.83;;;;;;;9.09;100.00;96893.09;6127588;23;20491;-78
2022/10/11 05:16:01;;;;;;;14.53;12.70;;;;;;;9.07;100.00;96908.41;6154380;23;20427;-79
2022/10/11 05:18:34;;;;;;;16.00;13.30;;;;;;;9.04;100.00;96898.47;6129089;23;20439;-79
2022/10/11 05:21:14;;;;;;;16.83;13.47;;;;;;;8.81;100.00;96863.47;6127296;23;20392;-77
2022/10/11 05:23:40;;;;;;;13.63;12.33;;;;;;;8.81;100.00;96852.91;6127346;23;20426;-79
2022/10/11 05:26:07;;;;;;;13.77;11.63;;;;;;;8.88;100.00;96879.63;6153412;23;20488;-79
2022/10/11 05:28:34;;;;;;;13.23;11.83;;;;;;;8.77;100.00;96859.84;6153463;23;20427;-79
2022/10/11 05:31:02;;;;;;;14.43;12.43;;;;;;;8.85;100.00;96871.53;6153412;23;20394;-79
2022/10/11 05:33:28;;;;;;;13.93;12.63;;;;;;;8.75;100.00;96863.88;6127128;23;20388;-79
2022/10/11 05:35:55;;;;;;;20.53;13.20;;;;;;;8.84;100.00;96865.47;6127355;23;20419;-78
2022/10/11 05:38:22;;;;;;;18.80;15.47;;;;;;;8.69;100.00;96836.88;6127047;23;20745;-78
2022/10/11 05:40:48;;;;;;;21.27;15.40;;;;;;;8.81;100.00;96854.75;6127251;23;20411;-79
2022/10/11 05:43:15;;;;;;;16.90;14.40;;;;;;;8.87;100.00;96872.00;6153288;23;20391;-79
2022/10/11 05:45:43;;;;;;;15.13;13.53;;;;;;;8.95;100.00;96889.75;6127902;23;20396;-79
2022/10/11 05:48:10;;;;;;;17.60;15.80;;;;;;;9.01;100.00;96907.00;6103300;23;20875;-79
2022/10/11 05:50:38;;;;;;;17.10;14.20;;;;;;;9.07;100.00;96916.34;6127888;23;20491;-79
2022/10/11 05:53:05;;;;;;;14.87;12.97;;;;;;;8.83;100.00;96889.53;6128284;23;20395;-79
2022/10/11 05:55:40;;;;;;;13.50;11.90;;;;;;;8.78;100.00;96893.03;6154090;23;20997;-79
2022/10/11 05:58:11;;;;;;;14.37;11.90;;;;;;;8.61;100.00;96871.06;6127619;23;20394;-79
2022/10/11 06:00:38;;;;;;;12.87;11.57;;;;;;;8.60;100.00;96875.56;6105210;23;20391;-79
2022/10/11 06:03:05;;;;;;;17.67;13.87;;;;;;;8.70;100.00;96882.44;6105142;23;20406;-79
2022/10/11 06:05:35;;;;;;;15.83;13.20;;;;;;;8.92;100.00;96910.66;6106540;23;20442;-81
2022/10/11 06:08:04;;;;;;;17.73;13.60;;;;;;;8.66;100.00;96873.56;6108226;23;20483;-81
2022/10/11 06:10:32;;;;;;;20.70;13.57;;;;;;;8.99;100.00;96932.91;6133050;23;20499;-81
2022/10/11 06:12:58;;;;;;;15.53;12.33;;;;;;;9.06;100.00;96937.75;6132313;23;20407;-81
2022/10/11 06:15:25;;;;;;;12.73;11.40;;;;;;;8.85;100.00;96903.19;6132140;23;20420;-81
2022/10/11 06:17:52;;;;;;;14.73;12.57;;;;;;;8.25;100.00;96801.47;6132186;23;20412;-81
2022/10/11 06:20:19;;;;;;;16.90;13.70;;;;;;;9.11;100.00;96919.16;6132284;23;20437;-81
2022/10/11 06:22:45;;;;;;;16.80;12.80;;;;;;;9.47;100.00;96948.84;6131486;23;20415;-81
2022/10/11 06:25:12;;;;;;;17.57;13.17;;;;;;;9.02;100.00;96891.94;6158191;23;20402;-81
2022/10/11 06:27:39;;;;;;;19.10;12.83;;;;;;;9.54;100.00;96964.25;6132729;23;20396;-81
2022/10/11 06:30:06;;;;;;;18.00;14.17;;;;;;;9.15;100.00;96912.19;6107520;23;20478;-81
2022/10/11 06:32:32;;;;;;;25.57;18.93;;;;;;;8.79;100.00;96870.88;6132509;23;20503;-82
2022/10/11 06:34:59;;;;;;;26.80;17.70;;;;;;;9.14;100.00;96921.19;6132499;23;20388;-81
2022/10/11 06:37:26;;;;;;;19.90;15.73;;;;;;;8.99;100.00;96898.63;6132032;23;20409;-82
2022/10/11 06:39:52;;;;;;;24.30;18.33;;;;;;;9.53;100.00;96978.53;6132123;23;20784;-82
2022/10/11 06:42:19;;;;;;;26.33;21.30;;;;;;;9.55;100.00;96976.38;6108418;23;20407;-81
2022/10/11 06:44:46;;;;;;;29.33;21.33;;;;;;;9.30;100.00;96943.47;6111763;23;20392;-82
2022/10/11 06:47:12;;;;;;;24.93;18.07;;;;;;;9.29;100.00;96943.78;6154361;23;20400;-82
2022/10/11 06:49:39;;;;;;;21.87;18.77;;;;;;;9.61;100.00;96990.22;6130020;23;20443;-82
2022/10/11 06:52:05;;;;;;;19.03;15.70;;;;;;;9.17;100.00;96918.72;6154840;23;20388;-82
2022/10/11 06:54:32;;;;;;;17.53;15.63;;;;;;;9.52;100.00;96979.63;6154500;23;20415;-82
2022/10/11 06:56:59;;;;;;;21.47;19.33;;;;;;;9.55;100.00;96980.88;6153448;23;20427;-82
2022/10/11 06:59:25;;;;;;;22.60;18.80;;;;;;;9.53;100.00;96978.53;6138743;23;20526;-82
2022/10/11 07:01:52;;;;;;;24.33;21.93;;;;;;;9.59;100.00;96984.47;6132937;23;20423;-82
2022/10/11 07:04:18;;;;;;;33.60;28.37;;;;;;;9.59;100.00;96984.47;6108337;23;20774;-81
2022/10/11 07:06:45;;;;;;;34.20;29.97;;;;;;;9.76;100.00;97014.38;6132992;23;20391;-82
2022/10/11 07:09:12;;;;;;;39.53;35.33;;;;;;;9.55;100.00;96980.88;6132537;23;20478;-82
2022/10/11 07:11:39;;;;;;;38.90;34.90;;;;;;;9.75;100.00;96999.63;6108234;23;20462;-81
2022/10/11 07:14:06;;;;;;;39.23;35.10;;;;;;;9.78;100.00;97011.44;6133090;23;20713;-82
2022/10/11 07:16:35;;;;;;;34.47;30.43;;;;;;;9.73;100.00;96996.50;6107996;23;20458;-81
2022/10/11 07:19:04;;;;;;;26.53;23.63;;;;;;;9.77;100.00;96999.31;6131920;23;20960;-82
2022/10/11 07:21:33;;;;;;;22.33;20.03;;;;;;;9.80;100.00;97009.28;6109075;23;20403;-82
2022/10/11 07:24:00;;;;;;;18.90;16.90;;;;;;;9.74;100.00;97002.53;6133124;23;20413;-81
2022/10/11 07:26:28;;;;;;;18.00;15.70;;;;;;;9.94;100.00;97033.72;6108682;23;20400;-81
2022/10/11 07:29:04;;;;;;;15.43;13.70;;;;;;;9.82;100.00;97009.75;6134286;23;20407;-81
2022/10/11 07:31:31;;;;;;;20.80;18.60;;;;;;;9.83;100.00;97008.66;6109023;23;20406;-82
2022/10/11 07:33:57;;;;;;;20.00;17.90;;;;;;;9.87;100.00;97001.66;6133275;23;20384;-82
2022/10/11 07:36:24;;;;;;;19.27;17.27;;;;;;;9.62;100.00;96958.25;6131777;23;20445;-81
2022/10/11 07:38:51;;;;;;;21.80;17.30;;;;;;;9.88;100.00;96990.06;6108375;23;20840;-81
2022/10/11 07:41:18;;;;;;;23.73;18.20;;;;;;;10.03;100.00;97024.00;6108562;23;20440;-82
2022/10/11 07:43:46;;;;;;;23.33;19.57;;;;;;;9.98;100.00;97004.84;6132253;23;20479;-82
2022/10/11 07:46:14;;;;;;;27.27;21.30;;;;;;;10.32;100.00;97041.22;6159558;23;20487;-81
2022/10/11 07:48:41;;;;;;;21.13;18.83;;;;;;;10.08;100.00;96997.41;6107802;23;20519;-82
2022/10/11 07:51:14;;;;;;;20.87;18.67;;;;;;;10.05;100.00;96984.03;6131534;23;20487;-82
2022/10/11 07:53:43;;;;;;;24.67;16.00;;;;;;;10.45;100.00;97031.59;6132330;23;20782;-82
2022/10/11 07:56:12;;;;;;;20.13;15.73;;;;;;;10.59;100.00;97064.78;6131631;23;20836;-82
2022/10/11 07:58:40;;;;;;;19.40;15.63;;;;;;;10.54;100.00;97022.59;6131692;23;20424;-82
2022/10/11 08:01:09;;;;;;;21.33;15.87;;;;;;;10.65;100.00;97031.00;6106904;23;20888;-81
2022/10/11 08:03:37;;;;;;;20.93;14.73;;;;;;;10.64;100.00;97042.69;6131818;23;20384;-82
2022/10/11 08:06:06;;;;;;;21.83;13.73;;;;;;;10.96;100.00;97054.72;6131172;23;20396;-82
2022/10/11 08:08:35;;;;;;;14.67;13.10;;;;;;;10.90;100.00;97040.06;6157753;23;20412;-82
2022/10/11 08:11:02;;;;;;;15.67;13.40;;;;;;;11.15;100.00;97071.06;6157779;23;20432;-82
2022/10/11 08:13:29;;;;;;;14.90;12.53;;;;;;;10.93;100.00;97024.34;6157436;23;20394;-82
2022/10/11 08:15:56;;;;;;;22.23;13.57;;;;;;;10.97;100.00;97040.41;6131779;23;20942;-81
2022/10/11 08:18:23;;;;;;;15.97;11.67;;;;;;;11.33;100.00;97082.44;6134191;23;20454;-82
2022/10/11 08:20:50;;;;;;;19.47;13.60;;;;;;;11.15;100.00;97041.97;6133423;23;20411;-82
2022/10/11 08:23:18;;;;;;;14.83;13.00;;;;;;;11.27;100.00;97078.41;6134617;23;20439;-82
2022/10/11 08:25:46;;;;;;;19.50;14.43;;;;;;;11.26;100.00;97063.59;6160201;23;20476;-82
2022/10/11 08:28:16;;;;;;;15.40;12.53;;;;;;;11.57;100.00;97086.47;6134585;23;20483;-82
2022/10/11 08:30:51;;;;;;;15.50;12.50;;;;;;;11.66;100.00;97090.69;6133822;23;20439;-82
2022/10/11 08:33:21;;;;;;;14.80;13.20;;;;;;;11.76;100.00;97100.19;6136002;23;20368;-82
2022/10/11 08:35:49;;;;;;;24.83;13.00;;;;;;;11.68;100.00;97088.50;6161743;23;20515;-82
2022/10/11 08:38:16;;;;;;;15.60;12.20;;;;;;;11.66;100.00;97082.72;6136334;23;20419;-82
2022/10/11 08:40:54;;;;;;;14.17;10.87;;;;;;;11.92;100.00;97106.56;6138002;23;20411;-82
2022/10/11 08:43:23;;;;;;;15.30;12.33;;;;;;;11.87;100.00;97112.00;6151724;23;20395;-82
2022/10/11 08:45:54;;;;;;;17.73;12.40;;;;;;;11.63;100.00;97079.94;6153168;23;20373;-82
2022/10/11 08:48:50;;;;;;;16.20;13.20;;;;;;;11.81;100.00;97098.16;6178263;23;20403;-82
2022/10/11 08:51:22;;;;;;;15.30;11.03;;;;;;;11.90;100.00;97116.72;6128820;23;20832;-83
2022/10/11 08:54:09;;;;;;;13.47;10.80;;;;;;;11.94;100.00;97119.50;6140022;23;20424;-82
2022/10/11 08:56:38;;;;;;;16.57;10.27;;;;;;;11.99;100.00;97124.63;6131602;23;20482;-82
2022/10/11 08:59:11;;;;;;;12.00;10.80;;;;;;;12.02;100.00;97119.50;6158289;23;20458;-82
2022/10/11 09:02:20;;;;;;;13.73;11.33;;;;;;;12.08;100.00;97114.78;6107675;23;20403;-82
2022/10/11 09:04:50;;;;;;;12.00;10.23;;;;;;;11.77;100.00;97067.28;6078894;23;20414;-82
2022/10/11 09:07:32;;;;;;;12.47;10.40;;;;;;;12.09;100.00;97119.00;6131366;23;20404;-82
2022/10/11 09:10:11;;;;;;;10.87;9.63;;;;;;;12.14;100.00;97114.28;6134225;23;20534;-82
2022/10/11 09:12:37;;;;;;;11.23;9.30;;;;;;;12.20;100.00;97120.22;6109757;23;20398;-82
2022/10/11 09:15:09;;;;;;;16.43;9.27;;;;;;;12.20;100.00;97120.22;6132712;23;20399;-82
2022/10/11 09:17:57;;;;;;;17.20;10.03;;;;;;;12.14;100.00;97118.81;6133276;23;20750;-82
2022/10/11 09:20:42;;;;;;;12.07;10.00;;;;;;;12.07;100.00;97102.63;6132564;23;20515;-82
2022/10/11 09:23:22;;;;;;;18.23;9.50;;;;;;;12.29;100.00;97115.66;6133019;23;20403;-82
2022/10/11 09:25:54;;;;;;;12.00;9.27;;;;;;;12.18;100.00;97105.72;6107465;23;21002;-82
2022/10/11 09:28:46;;;;;;;15.63;10.03;;;;;;;12.48;100.00;97112.63;6131874;23;20396;-82
2022/10/11 09:31:13;;;;;;;18.57;9.43;;;;;;;12.38;100.00;97081.94;6157117;23;20488;-82
2022/10/11 09:33:47;;;;;;;10.70;9.70;;;;;;;12.65;100.00;97117.06;6107023;23;20443;-82
2022/10/11 09:36:39;;;;;;;10.50;9.37;;;;;;;12.64;100.00;97115.50;6107241;23;20429;-83
2022/10/11 09:39:38;;;;;;;11.10;9.40;;;;;;;12.72;100.00;97122.66;6131058;23;20476;-82
2022/10/11 09:42:08;;;;;;;10.73;9.63;;;;;;;12.45;100.00;97094.69;6106954;23;20400;-82
2022/10/11 09:44:36;;;;;;;13.83;10.97;;;;;;;12.47;100.00;97102.34;6159966;23;20384;-82
2022/10/11 09:47:04;;;;;;;14.47;10.17;;;;;;;12.56;100.00;97111.81;6107095;23;20404;-81
2022/10/11 09:49:41;;;;;;;10.87;9.37;;;;;;;12.63;100.00;97113.97;6130819;23;20463;-82
2022/10/11 09:52:17;;;;;;;13.23;9.77;;;;;;;12.37;100.00;97076.94;6130508;23;20443;-82
2022/10/11 09:54:50;;;;;;;11.33;8.97;;;;;;;12.53;100.00;97080.59;6157468;23;20479;-82
2022/10/11 09:57:21;;;;;;;17.83;9.97;;;;;;;12.68;100.00;97127.81;6130926;23;21216;-82
2022/10/11 10:00:16;;;;;;;11.93;10.33;;;;;;;12.84;100.00;97125.41;6157151;23;20400;-82
2022/10/11 10:02:46;;;;;;;14.00;10.20;;;;;;;12.22;100.00;97029.75;6157018;23;20392;-82
2022/10/11 10:05:17;;;;;;;12.43;9.10;;;;;;;12.57;100.00;97107.28;6131177;23;20404;-82
2022/10/11 10:08:09;;;;;;;13.00;9.40;;;;;;;12.76;100.00;97118.28;6130676;23;20406;-81
2022/10/11 10:10:42;;;;;;;10.67;8.83;;;;;;;12.94;100.00;97119.72;6130430;23;20729;-82
2022/10/11 10:13:20;;;;;;;12.80;10.00;;;;;;;12.98;100.00;97118.00;6130871;23;20373;-82
2022/10/11 10:15:53;;;;;;;12.60;9.07;;;;;;;12.66;100.00;97076.94;6130641;23;20486;-82
2022/10/11 10:18:28;;;;;;;13.73;8.80;;;;;;;13.35;100.00;97118.22;6107060;23;20492;-82
2022/10/11 10:21:00;;;;;;;12.50;8.37;;;;;;;13.61;100.00;97118.78;6130333;23;20407;-82
2022/10/11 10:23:30;;;;;;;10.47;7.40;;;;;;;13.33;100.00;97048.72;6130842;23;20368;-83
2022/10/11 10:26:19;;;;;;;11.40;8.60;;;;;;;13.26;100.00;97059.88;6130987;23;20443;-82
2022/10/11 10:29:07;;;;;;;11.70;8.87;;;;;;;13.73;100.00;97117.28;6131211;23;20483;-82
2022/10/11 10:31:51;;;;;;;11.70;9.50;;;;;;;13.50;100.00;97096.41;6121601;23;20388;-83
2022/10/11 10:35:17;;;;;;;8.63;7.20;;;;;;;13.79;100.00;97127.41;6151435;23;20399;-83
2022/10/11 10:37:58;;;;;;;15.43;9.20;;;;;;;13.58;100.00;97106.16;6094420;23;20438;-82
2022/10/11 10:40:34;;;;;;;12.60;8.60;;;;;;;13.86;100.00;97126.88;6175941;23;20420;-83
2022/10/11 10:43:01;;;;;;;9.37;8.07;;;;;;;14.23;100.00;97134.97;6149970;23;20420;-83
2022/10/11 10:45:41;;;;;;;14.03;9.20;;;;;;;14.08;100.00;97099.91;6137436;23;20431;-82
2022/10/11 10:48:26;;;;;;;11.13;9.97;;;;;;;14.27;100.00;97125.97;6133370;23;20572;-82
2022/10/11 10:51:22;;;;;;;19.00;9.90;;;;;;;13.80;100.00;97126.31;6133622;23;20439;-82
2022/10/11 10:54:09;;;;;;;14.90;9.80;;;;;;;14.04;100.00;97099.03;6133776;23;20994;-82
2022/10/11 10:56:58;;;;;;;11.60;10.50;;;;;;;14.44;100.00;97133.03;6108184;23;20461;-83
2022/10/11 10:59:37;;;;;;;11.13;8.83;;;;;;;14.20;100.00;97131.06;6133723;23;20770;-82
2022/10/11 11:02:15;;;;;;;12.63;10.10;;;;;;;13.61;100.00;97097.53;6133023;23;20502;-83
2022/10/11 11:05:22;;;;;;;16.23;9.03;;;;;;;13.44;100.00;97134.09;6113718;23;20406;-82
2022/10/11 11:08:19;;;;;;;12.60;10.10;;;;;;;13.74;100.00;97129.47;6159415;23;20475;-82
2022/10/11 11:11:14;;;;;;;12.50;10.90;;;;;;;13.92;100.00;97128.22;6108988;23;20415;-83
2022/10/11 11:13:46;;;;;;;12.17;9.53;;;;;;;13.83;100.00;97124.88;6132842;23;21246;-82
2022/10/11 11:16:40;;;;;;;13.07;10.10;;;;;;;13.69;100.00;97090.59;6108500;23;20431;-83
2022/10/11 11:19:07;;;;;;;12.67;10.20;;;;;;;13.98;100.00;97129.56;6131378;23;20434;-82
2022/10/11 11:21:52;;;;;;;12.23;9.90;;;;;;;13.90;100.00;97091.34;6108389;23;20399;-83
2022/10/11 11:24:55;;;;;;;10.10;9.10;;;;;;;14.56;100.00;97130.38;6132493;23;20439;-82
2022/10/11 11:28:05;;;;;;;17.13;9.40;;;;;;;14.78;100.00;97127.28;6144971;23;20399;-81
2022/10/11 11:30:48;;;;;;;11.47;9.20;;;;;;;14.94;100.00;97098.06;6143304;23;20902;-81
2022/10/11 11:33:14;;;;;;;10.97;8.67;;;;;;;14.54;100.00;97116.63;6144080;23;20475;-81
2022/10/11 11:35:48;;;;;;;11.30;8.77;;;;;;;14.19;100.00;97071.00;6143477;23;20451;-81
2022/10/11 11:38:23;;;;;;;10.57;8.60;;;;;;;14.40;100.00;97076.22;6142375;23;20430;-81
2022/10/11 11:41:00;;;;;;;9.67;8.73;;;;;;;14.92;100.00;97115.50;6167181;23;20419;-81